createdAt,value
2022-11-05T00:00:07.848Z,99460.09
2022-11-05T00:03:28.917Z,99453.81
2022-11-05T00:06:49.525Z,99465.16
2022-11-05T00:10:06.743Z,99469.31
2022-11-05T00:13:29.074Z,99463.91
2022-11-05T00:16:46.446Z,99469.78
2022-11-05T00:19:48.505Z,99465.16
2022-11-05T00:23:09.956Z,99447.03
2022-11-05T00:26:12.524Z,99444.97
2022-11-05T00:29:14.884Z,99440.88
2022-11-05T00:32:16.938Z,99436.34
2022-11-05T00:35:21.538Z,99429.19
2022-11-05T00:38:24.193Z,99418.78
2022-11-05T00:41:26.503Z,99417.13
2022-11-05T00:44:47.025Z,99434.31
2022-11-05T00:48:07.882Z,99433.66
2022-11-05T00:51:09.938Z,99444.06
2022-11-05T00:54:12.270Z,99447.84
2022-11-05T00:57:14.342Z,99451.87
2022-11-05T01:00:17.004Z,99443.78
2022-11-05T01:03:21.882Z,99456.50
2022-11-05T01:06:24.197Z,99444.13
2022-11-05T01:09:26.257Z,99453.81
2022-11-05T01:12:28.924Z,99454.63
2022-11-05T01:15:31.040Z,99451.63
2022-11-05T01:18:33.622Z,99460.03
2022-11-05T01:21:36.316Z,99454.78
2022-11-05T01:24:38.848Z,99450.50
2022-11-05T01:27:40.931Z,99462.28
2022-11-05T01:30:43.269Z,99460.53
2022-11-05T01:33:45.565Z,99456.28
2022-11-05T01:36:47.881Z,99454.34
2022-11-05T01:39:49.966Z,99456.47
2022-11-05T01:42:52.319Z,99458.53
2022-11-05T01:45:58.672Z,99474.06
2022-11-05T01:49:15.687Z,99482.63
2022-11-05T01:52:18.508Z,99493.59
2022-11-05T01:55:25.523Z,99497.09
2022-11-05T01:58:36.728Z,99501.22
2022-11-05T02:01:39.244Z,99503.13
2022-11-05T02:04:47.804Z,99497.91
2022-11-05T02:07:51.719Z,99493.50
2022-11-05T02:10:54.066Z,99504.13
2022-11-05T02:13:56.427Z,99508.41
2022-11-05T02:17:08.487Z,99497.94
2022-11-05T02:20:23.488Z,99496.34
2022-11-05T02:23:53.666Z,99495.09
2022-11-05T02:27:42.845Z,99502.69
2022-11-05T02:30:54.984Z,99497.16
2022-11-05T02:34:14.697Z,99498.28
2022-11-05T02:37:39.671Z,99502.88
2022-11-05T02:41:06.724Z,99499.09
2022-11-05T02:44:27.114Z,99505.91
2022-11-05T02:47:42.829Z,99498.94
2022-11-05T02:50:50.616Z,99506.41
2022-11-05T02:54:26.894Z,99506.56
2022-11-05T02:57:29.731Z,99511.47
2022-11-05T03:00:35.197Z,99512.87
2022-11-05T03:03:43.922Z,99512.72
2022-11-05T03:07:24.292Z,99517.34
2022-11-05T03:10:45.285Z,99520.03
2022-11-05T03:13:54.443Z,99521.28
2022-11-05T03:17:15.181Z,99522.56
2022-11-05T03:20:48.887Z,99532.06
2022-11-05T03:24:01.945Z,99532.53
2022-11-05T03:27:10.249Z,99534.78
2022-11-05T03:30:14.906Z,99531.09
2022-11-05T03:33:22.176Z,99546.81
2022-11-05T03:36:28.439Z,99541.56
2022-11-05T03:39:37.637Z,99542.22
2022-11-05T03:42:44.653Z,99548.72
2022-11-05T03:45:55.659Z,99547.94
2022-11-05T03:49:01.561Z,99545.06
2022-11-05T03:52:37.438Z,99557.91
2022-11-05T03:55:51.078Z,99556.47
2022-11-05T03:58:58.966Z,99557.25
2022-11-05T04:02:02.665Z,99559.50
2022-11-05T04:05:05.601Z,99568.38
2022-11-05T04:08:27.762Z,99548.84
2022-11-05T04:11:48.514Z,99541.56
2022-11-05T04:14:50.742Z,99530.00
2022-11-05T04:17:53.104Z,99535.84
2022-11-05T04:21:13.735Z,99540.00
2022-11-05T04:24:16.065Z,99535.53
2022-11-05T04:27:18.124Z,99543.16
2022-11-05T04:30:21.501Z,99552.34
2022-11-05T04:33:23.733Z,99539.81
2022-11-05T04:36:26.360Z,99531.09
2022-11-05T04:39:28.383Z,99523.75
2022-11-05T04:42:30.699Z,99523.78
2022-11-05T04:45:37.227Z,99520.47
2022-11-05T04:48:39.551Z,99531.53
2022-11-05T04:51:41.620Z,99528.06
2022-11-05T04:54:44.105Z,99524.91
2022-11-05T04:57:50.988Z,99539.94
2022-11-05T05:00:53.362Z,99541.69
2022-11-05T05:03:55.604Z,99540.59
2022-11-05T05:06:57.937Z,99538.38
2022-11-05T05:10:01.058Z,99539.34
2022-11-05T05:13:03.399Z,99538.69
2022-11-05T05:16:08.060Z,99532.78
2022-11-05T05:19:10.391Z,99541.38
2022-11-05T05:22:12.493Z,99536.94
2022-11-05T05:25:14.825Z,99538.84
2022-11-05T05:28:16.892Z,99547.56
2022-11-05T05:31:19.850Z,99553.41
2022-11-05T05:34:21.893Z,99559.59
2022-11-05T05:37:24.282Z,99561.81
2022-11-05T05:40:26.334Z,99568.03
2022-11-05T05:43:33.015Z,99574.53
2022-11-05T05:46:35.110Z,99570.09
2022-11-05T05:49:37.412Z,99567.91
2022-11-05T05:52:39.464Z,99571.03
2022-11-05T05:55:41.767Z,99585.84
2022-11-05T05:58:43.851Z,99592.47
2022-11-05T06:01:46.312Z,99597.97
2022-11-05T06:04:48.683Z,99605.78
2022-11-05T06:07:59.757Z,99612.91
2022-11-05T06:11:03.626Z,99625.75
2022-11-05T06:14:05.815Z,99611.75
2022-11-05T06:17:08.229Z,99623.47
2022-11-05T06:20:11.718Z,99621.09
2022-11-05T06:23:14.149Z,99614.72
2022-11-05T06:26:18.339Z,99615.50
2022-11-05T06:29:20.757Z,99627.91
2022-11-05T06:32:22.964Z,99624.25
2022-11-05T06:35:25.289Z,99635.22
2022-11-05T06:38:29.215Z,99636.94
2022-11-05T06:41:31.553Z,99632.06
2022-11-05T06:44:33.591Z,99629.53
2022-11-05T06:47:35.919Z,99639.22
2022-11-05T06:50:38.098Z,99625.91
2022-11-05T06:53:40.420Z,99635.69
2022-11-05T06:56:42.545Z,99636.22
2022-11-05T06:59:44.923Z,99642.91
2022-11-05T07:02:47.171Z,99638.44
2022-11-05T07:05:50.668Z,99648.13
2022-11-05T07:08:52.756Z,99651.31
2022-11-05T07:11:57.825Z,99643.22
2022-11-05T07:14:59.946Z,99648.97
2022-11-05T07:18:02.723Z,99653.72
2022-11-05T07:21:04.888Z,99651.66
2022-11-05T07:24:07.729Z,99650.69
2022-11-05T07:27:09.789Z,99642.78
2022-11-05T07:30:12.441Z,99653.09
2022-11-05T07:33:14.961Z,99666.75
2022-11-05T07:36:17.395Z,99655.94
2022-11-05T07:39:19.699Z,99659.91
2022-11-05T07:42:22.013Z,99665.63
2022-11-05T07:45:25.664Z,99660.72
2022-11-05T07:48:27.970Z,99664.56
2022-11-05T07:51:29.996Z,99658.03
2022-11-05T07:54:32.329Z,99667.56
2022-11-05T07:57:41.026Z,99670.41
2022-11-05T08:00:43.576Z,99661.69
2022-11-05T08:03:46.146Z,99668.34
2022-11-05T08:06:48.302Z,99657.87
2022-11-05T08:09:50.699Z,99663.91
2022-11-05T08:12:54.174Z,99646.75
2022-11-05T08:15:57.656Z,99650.91
2022-11-05T08:18:59.745Z,99645.00
2022-11-05T08:22:02.060Z,99646.91
2022-11-05T08:25:06.934Z,99645.00
2022-11-05T08:28:12.748Z,99640.06
2022-11-05T08:31:15.895Z,99636.56
2022-11-05T08:34:18.299Z,99621.47
2022-11-05T08:37:20.363Z,99632.41
2022-11-05T08:40:22.739Z,99627.13
2022-11-05T08:43:25.259Z,99642.69
2022-11-05T08:46:27.612Z,99647.00
2022-11-05T08:49:29.687Z,99638.88
2022-11-05T08:52:32.290Z,99635.84
2022-11-05T08:55:34.760Z,99640.47
2022-11-05T08:58:37.580Z,99637.41
2022-11-05T09:01:39.799Z,99659.00
2022-11-05T09:04:42.153Z,99664.28
2022-11-05T09:07:45.044Z,99671.94
2022-11-05T09:10:49.650Z,99662.84
2022-11-05T09:13:51.897Z,99669.03
2022-11-05T09:16:54.263Z,99683.66
2022-11-05T09:19:56.322Z,99682.88
2022-11-05T09:22:58.717Z,99682.06
2022-11-05T09:26:00.784Z,99694.16
2022-11-05T09:29:03.348Z,99690.00
2022-11-05T09:32:05.641Z,99686.69
2022-11-05T09:35:08.929Z,99692.38
2022-11-05T09:38:11.358Z,99683.47
2022-11-05T09:41:44.426Z,99681.44
2022-11-05T09:44:59.469Z,99686.78
2022-11-05T09:48:09.975Z,99676.31
2022-11-05T09:51:20.825Z,99671.38
2022-11-05T09:54:29.371Z,99664.00
2022-11-05T09:57:43.602Z,99666.25
2022-11-05T10:00:50.911Z,99680.69
2022-11-05T10:03:58.675Z,99677.22
2022-11-05T10:07:04.227Z,99684.50
2022-11-05T10:10:08.793Z,99670.75
2022-11-05T10:13:29.746Z,99668.75
2022-11-05T10:16:42.393Z,99682.19
2022-11-05T10:19:49.584Z,99674.31
2022-11-05T10:22:58.523Z,99685.72
2022-11-05T10:26:07.636Z,99689.97
2022-11-05T10:29:13.405Z,99675.78
2022-11-05T10:32:31.069Z,99672.87
2022-11-05T10:35:38.572Z,99672.25
2022-11-05T10:38:40.616Z,99680.03
2022-11-05T10:41:55.012Z,99673.94
2022-11-05T10:45:20.379Z,99674.22
2022-11-05T10:48:43.446Z,99678.81
2022-11-05T10:51:52.303Z,99686.63
2022-11-05T10:55:04.970Z,99697.41
2022-11-05T10:58:19.291Z,99695.87
2022-11-05T11:01:23.448Z,99703.81
2022-11-05T11:04:31.224Z,99709.34
2022-11-05T11:07:36.397Z,99710.63
2022-11-05T11:10:53.041Z,99721.03
2022-11-05T11:14:02.241Z,99719.66
2022-11-05T11:17:27.581Z,99718.22
2022-11-05T11:20:32.131Z,99722.69
2022-11-05T11:23:38.920Z,99707.75
2022-11-05T11:26:42.126Z,99706.69
2022-11-05T11:29:49.728Z,99711.31
2022-11-05T11:33:06.648Z,99698.50
2022-11-05T11:36:11.016Z,99713.78
2022-11-05T11:39:22.336Z,99720.69
2022-11-05T11:42:36.602Z,99713.16
2022-11-05T11:45:46.801Z,99708.41
2022-11-05T11:48:49.614Z,99708.06
2022-11-05T11:51:59.554Z,99710.53
2022-11-05T11:55:19.683Z,99710.75
2022-11-05T11:58:25.584Z,99704.34
2022-11-05T12:01:39.803Z,99719.44
2022-11-05T12:05:17.799Z,99716.72
2022-11-05T12:08:33.641Z,99717.66
2022-11-05T12:11:46.142Z,99715.72
2022-11-05T12:15:23.323Z,99707.25
2022-11-05T12:18:52.296Z,99705.81
2022-11-05T12:22:13.558Z,99709.09
2022-11-05T12:25:25.277Z,99721.03
2022-11-05T12:29:17.300Z,99737.41
2022-11-05T12:32:22.067Z,99737.41
2022-11-05T12:36:14.480Z,99753.97
2022-11-05T12:39:43.013Z,99746.44
2022-11-05T12:42:56.624Z,99740.34
2022-11-05T12:46:23.813Z,99742.63
2022-11-05T12:49:45.669Z,99749.03
2022-11-05T12:53:01.650Z,99763.88
2022-11-05T12:56:12.684Z,99763.03
2022-11-05T12:59:39.719Z,99775.16
2022-11-05T13:03:19.081Z,99774.66
2022-11-05T13:06:32.124Z,99784.72
2022-11-05T13:09:41.691Z,99780.87
2022-11-05T13:12:45.706Z,99781.88
2022-11-05T13:15:59.172Z,99782.66
2022-11-05T13:19:26.340Z,99790.13
2022-11-05T13:22:42.698Z,99794.44
2022-11-05T13:25:53.188Z,99797.41
2022-11-05T13:29:16.485Z,99799.97
2022-11-05T13:32:33.137Z,99799.50
2022-11-05T13:35:47.508Z,99800.50
2022-11-05T13:39:12.844Z,99796.59
2022-11-05T13:42:36.919Z,99803.56
2022-11-05T13:46:05.861Z,99805.34
2022-11-05T13:49:34.014Z,99800.66
2022-11-05T13:53:04.273Z,99809.72
2022-11-05T13:56:24.331Z,99799.31
2022-11-05T13:59:39.935Z,99802.50
2022-11-05T14:02:46.815Z,99801.56
2022-11-05T14:05:54.474Z,99809.38
2022-11-05T14:09:01.019Z,99806.19
2022-11-05T14:12:05.517Z,99798.50
2022-11-05T14:15:17.623Z,99799.34
2022-11-05T14:18:38.499Z,99800.88
2022-11-05T14:21:57.944Z,99800.06
2022-11-05T14:25:21.287Z,99800.28
2022-11-05T14:28:35.311Z,99812.34
2022-11-05T14:32:07.078Z,99818.09
2022-11-05T14:35:33.751Z,99824.34
2022-11-05T14:38:36.105Z,99813.72
2022-11-05T14:42:12.009Z,99817.97
2022-11-05T14:45:14.507Z,99819.56
2022-11-05T14:48:48.830Z,99823.09
2022-11-05T14:51:54.686Z,99835.53
2022-11-05T14:54:58.471Z,99834.59
2022-11-05T14:58:03.881Z,99836.88
2022-11-05T15:01:13.596Z,99852.16
2022-11-05T15:04:25.076Z,99841.16
2022-11-05T15:07:35.615Z,99842.63
2022-11-05T15:10:39.561Z,99852.78
2022-11-05T15:13:59.484Z,99840.66
2022-11-05T15:17:29.617Z,99846.41
2022-11-05T15:20:40.616Z,99850.06
2022-11-05T15:23:45.582Z,99847.06
2022-11-05T15:26:54.382Z,99849.16
2022-11-05T15:29:57.267Z,99856.22
2022-11-05T15:33:28.955Z,99857.81
2022-11-05T15:36:32.021Z,99863.59
2022-11-05T15:39:41.126Z,99864.37
2022-11-05T15:42:43.474Z,99867.06
2022-11-05T15:46:22.049Z,99869.63
2022-11-05T15:49:24.412Z,99877.63
2022-11-05T15:52:36.451Z,99880.22
2022-11-05T15:55:54.518Z,99882.62
2022-11-05T15:59:00.223Z,99884.03
2022-11-05T16:02:23.904Z,99883.03
2022-11-05T16:05:33.695Z,99886.53
2022-11-05T16:08:36.047Z,99882.25
2022-11-05T16:11:38.390Z,99899.47
2022-11-05T16:14:41.607Z,99903.13
2022-11-05T16:17:50.368Z,99898.97
2022-11-05T16:21:12.877Z,99898.66
2022-11-05T16:24:28.140Z,99903.97
2022-11-05T16:27:31.400Z,99916.87
2022-11-05T16:30:33.911Z,99922.28
2022-11-05T16:33:45.242Z,99923.25
2022-11-05T16:36:47.590Z,99928.53
2022-11-05T16:39:50.312Z,99933.31
2022-11-05T16:42:54.246Z,99936.00
2022-11-05T16:46:01.294Z,99940.97
2022-11-05T16:49:04.016Z,99930.78
2022-11-05T16:52:10.683Z,99935.75
2022-11-05T16:55:14.801Z,99941.16
2022-11-05T16:58:22.612Z,99940.84
2022-11-05T17:01:25.863Z,99943.22
2022-11-05T17:04:28.107Z,99947.06
2022-11-05T17:07:30.449Z,99948.47
2022-11-05T17:10:32.642Z,99951.50
2022-11-05T17:13:35.035Z,99953.75
2022-11-05T17:16:38.400Z,99969.00
2022-11-05T17:19:46.604Z,99958.34
2022-11-05T17:22:48.756Z,99963.75
2022-11-05T17:25:55.011Z,99969.94
2022-11-05T17:28:57.084Z,99976.28
2022-11-05T17:31:59.394Z,99970.44
2022-11-05T17:35:01.462Z,99971.37
2022-11-05T17:38:03.804Z,99974.72
2022-11-05T17:41:17.881Z,99977.75
2022-11-05T17:44:20.242Z,99970.09
2022-11-05T17:47:22.721Z,99981.16
2022-11-05T17:50:25.088Z,99981.69
2022-11-05T17:53:27.264Z,99985.03
2022-11-05T17:56:35.063Z,99987.56
2022-11-05T17:59:39.290Z,99983.16
2022-11-05T18:02:41.747Z,99982.00
2022-11-05T18:05:44.219Z,99981.84
2022-11-05T18:08:46.331Z,99988.19
2022-11-05T18:11:48.662Z,99989.47
2022-11-05T18:14:50.805Z,99995.78
2022-11-05T18:17:53.154Z,99993.41
2022-11-05T18:20:59.210Z,100002.13
2022-11-05T18:24:06.036Z,100003.25
2022-11-05T18:27:08.123Z,100009.87
2022-11-05T18:30:13.838Z,100014.84
2022-11-05T18:33:15.926Z,100025.62
2022-11-05T18:36:20.856Z,100026.28
2022-11-05T18:39:22.920Z,100020.72
2022-11-05T18:42:25.403Z,100037.37
2022-11-05T18:45:29.915Z,100034.34
2022-11-05T18:48:32.481Z,100037.72
2022-11-05T18:51:34.552Z,100052.91
2022-11-05T18:54:36.959Z,100057.41
2022-11-05T18:57:39.204Z,100053.78
2022-11-05T19:00:42.055Z,100057.25
2022-11-05T19:03:44.466Z,100063.87
2022-11-05T19:06:46.863Z,100062.12
2022-11-05T19:09:49.564Z,100067.06
2022-11-05T19:12:52.209Z,100071.47
2022-11-05T19:15:54.280Z,100079.31
2022-11-05T19:19:01.886Z,100076.88
2022-11-05T19:22:04.441Z,100078.31
2022-11-05T19:25:07.367Z,100078.31
2022-11-05T19:28:09.802Z,100081.34
2022-11-05T19:31:20.584Z,100087.87
2022-11-05T19:34:22.733Z,100090.91
2022-11-05T19:37:25.082Z,100093.59
2022-11-05T19:40:27.464Z,100091.97
2022-11-05T19:43:29.810Z,100094.87
2022-11-05T19:46:33.258Z,100105.84
2022-11-05T19:49:35.598Z,100106.16
2022-11-05T19:52:37.663Z,100111.25
2022-11-05T19:55:41.455Z,100116.03
2022-11-05T19:58:43.730Z,100123.50
2022-11-05T20:01:46.260Z,100121.00
2022-11-05T20:04:50.583Z,100132.09
2022-11-05T20:07:53.392Z,100126.72
2022-11-05T20:10:56.833Z,100136.41
2022-11-05T20:13:58.951Z,100144.81
2022-11-05T20:17:01.281Z,100142.59
2022-11-05T20:20:04.140Z,100140.81
2022-11-05T20:23:06.479Z,100151.03
2022-11-05T20:26:10.318Z,100150.66
2022-11-05T20:29:12.955Z,100156.53
2022-11-05T20:32:15.080Z,100157.81
2022-11-05T20:35:17.516Z,100153.38
2022-11-05T20:38:19.632Z,100168.34
2022-11-05T20:41:22.718Z,100163.84
2022-11-05T20:44:24.826Z,100167.84
2022-11-05T20:47:27.154Z,100168.03
2022-11-05T20:50:29.226Z,100168.47
2022-11-05T20:53:31.639Z,100172.63
2022-11-05T20:56:37.386Z,100174.03
2022-11-05T20:59:39.749Z,100168.63
2022-11-05T21:02:42.110Z,100183.13
2022-11-05T21:05:49.347Z,100177.53
2022-11-05T21:08:52.286Z,100182.81
2022-11-05T21:12:10.070Z,100183.91
2022-11-05T21:15:12.181Z,100180.53
2022-11-05T21:18:15.049Z,100189.19
2022-11-05T21:21:19.299Z,100182.44
2022-11-05T21:24:21.724Z,100189.87
2022-11-05T21:27:24.403Z,100184.34
2022-11-05T21:30:26.746Z,100190.56
2022-11-05T21:33:28.984Z,100187.84
2022-11-05T21:36:31.323Z,100182.56
2022-11-05T21:39:36.818Z,100188.50
2022-11-05T21:42:39.180Z,100190.50
2022-11-05T21:45:42.836Z,100190.69
2022-11-05T21:48:45.208Z,100189.09
2022-11-05T21:52:05.604Z,100191.00
2022-11-05T21:55:46.377Z,100195.47
2022-11-05T21:59:06.997Z,100191.47
2022-11-05T22:02:12.442Z,100191.00
2022-11-05T22:05:15.202Z,100197.69
2022-11-05T22:08:17.277Z,100203.09
2022-11-05T22:11:19.604Z,100199.87
2022-11-05T22:14:22.069Z,100205.59
2022-11-05T22:17:24.793Z,100202.91
2022-11-05T22:20:27.046Z,100201.00
2022-11-05T22:23:29.408Z,100203.37
2022-11-05T22:26:31.773Z,100204.69
2022-11-05T22:29:36.058Z,100207.41
2022-11-05T22:32:38.947Z,100204.06
2022-11-05T22:35:41.282Z,100204.50
2022-11-05T22:38:43.631Z,100203.59
2022-11-05T22:41:46.121Z,100203.59
2022-11-05T22:44:48.231Z,100209.59
2022-11-05T22:47:50.588Z,100207.41
2022-11-05T22:50:52.662Z,100206.28
2022-11-05T22:53:55.114Z,100207.31
2022-11-05T22:56:57.225Z,100211.00
2022-11-05T22:59:59.604Z,100215.31
2022-11-05T23:03:02.905Z,100214.63
2022-11-05T23:06:28.143Z,100218.00
2022-11-05T23:09:52.453Z,100215.50
2022-11-05T23:12:55.279Z,100218.31
2022-11-05T23:16:15.685Z,100223.72
2022-11-05T23:19:37.007Z,100222.28
2022-11-05T23:22:57.534Z,100223.72
2022-11-05T23:26:20.596Z,100235.62
2022-11-05T23:29:27.041Z,100231.34
2022-11-05T23:32:31.277Z,100235.28
2022-11-05T23:35:53.357Z,100240.66
2022-11-05T23:38:55.700Z,100240.66
2022-11-05T23:42:16.324Z,100240.34
2022-11-05T23:45:37.972Z,100231.47
2022-11-05T23:48:40.033Z,100240.53
2022-11-05T23:51:42.371Z,100239.94
2022-11-05T23:54:44.439Z,100239.72
2022-11-05T23:57:46.787Z,100239.72
